Map

Track Data

SID SEASON NUMBER BASIN SUBBASIN NAME ISO_TIME NATURE LAT LON WMO_WIND WMO_PRES WMO_AGENCY TRACK_TYPE DIST2LAND LANDFALL IFLAG USA_AGENCY USA_ATCF_ID USA_LAT USA_LON USA_RECORD USA_STATUS USA_WIND USA_PRES USA_SSHS USA_R34_NE USA_R34_SE USA_R34_SW USA_R34_NW USA_R50_NE USA_R50_SE USA_R50_SW USA_R50_NW USA_R64_NE USA_R64_SE USA_R64_SW USA_R64_NW USA_POCI USA_ROCI USA_RMW USA_EYE TOKYO_LAT TOKYO_LON TOKYO_GRADE TOKYO_WIND TOKYO_PRES TOKYO_R50_DIR TOKYO_R50_LONG TOKYO_R50_SHORT TOKYO_R30_DIR TOKYO_R30_LONG TOKYO_R30_SHORT TOKYO_LAND CMA_LAT CMA_LON CMA_CAT CMA_WIND CMA_PRES HKO_LAT HKO_LON HKO_CAT HKO_WIND HKO_PRES NEWDELHI_LAT NEWDELHI_LON NEWDELHI_GRADE NEWDELHI_WIND NEWDELHI_PRES NEWDELHI_CI NEWDELHI_DP NEWDELHI_POCI REUNION_LAT REUNION_LON REUNION_TYPE REUNION_WIND REUNION_PRES REUNION_TNUM REUNION_CI REUNION_RMW REUNION_R34_NE REUNION_R34_SE REUNION_R34_SW REUNION_R34_NW REUNION_R50_NE REUNION_R50_SE REUNION_R50_SW REUNION_R50_NW REUNION_R64_NE REUNION_R64_SE REUNION_R64_SW REUNION_R64_NW BOM_LAT BOM_LON BOM_TYPE BOM_WIND BOM_PRES BOM_TNUM BOM_CI BOM_RMW BOM_R34_NE BOM_R34_SE BOM_R34_SW BOM_R34_NW BOM_R50_NE BOM_R50_SE BOM_R50_SW BOM_R50_NW BOM_R64_NE BOM_R64_SE BOM_R64_SW BOM_R64_NW BOM_ROCI BOM_POCI BOM_EYE BOM_POS_METHOD BOM_PRES_METHOD NADI_LAT NADI_LON NADI_CAT NADI_WIND NADI_PRES WELLINGTON_LAT WELLINGTON_LON WELLINGTON_WIND WELLINGTON_PRES DS824_LAT DS824_LON DS824_STAGE DS824_WIND DS824_PRES TD9636_LAT TD9636_LON TD9636_STAGE TD9636_WIND TD9636_PRES TD9635_LAT TD9635_LON TD9635_WIND TD9635_PRES TD9635_ROCI NEUMANN_LAT NEUMANN_LON NEUMANN_CLASS NEUMANN_WIND NEUMANN_PRES MLC_LAT MLC_LON MLC_CLASS MLC_WIND MLC_PRES USA_GUST BOM_GUST BOM_GUST_PER REUNION_GUST REUNION_GUST_PER USA_SEAHGT USA_SEARAD_NE USA_SEARAD_SE USA_SEARAD_SW USA_SEARAD_NW STORM_SPEED STORM_DIR
1886246N18135 1886 28 WP MM NOT_NAMED 1886-09-02 16:00:00 NR 18.4000 134.800 main 1214 1188 __________O___ -1 18.4000 134.800 7 8 276
1886246N18135 1886 28 WP MM NOT_NAMED 1886-09-02 18:00:00 NR 18.4262 134.534 main 1188 1156 __________P___ -1 18.4262 134.534 7 8 276
1886246N18135 1886 28 WP MM NOT_NAMED 1886-09-02 21:00:00 NR 18.4679 134.136 main 1156 1118 __________P___ -1 18.4679 134.136 7 8 277
1886246N18135 1886 28 WP MM NOT_NAMED 1886-09-03 00:00:00 NR 18.5165 133.736 main 1118 1085 __________P___ -1 18.5165 133.736 7 8 278
1886246N18135 1886 28 WP MM NOT_NAMED 1886-09-03 03:00:00 NR 18.5766 133.334 main 1085 1076 __________P___ -1 18.5766 133.334 7 8 279
1886246N18135 1886 28 WP MM NOT_NAMED 1886-09-03 04:00:00 NR 18.6000 133.200 main 1076 1054 __________O___ -1 18.6000 133.200 7 8 281
1886246N18135 1886 28 WP MM NOT_NAMED 1886-09-03 06:00:00 NR 18.6525 132.931 main 1054 1017 __________P___ -1 18.6525 132.931 7 8 283
1886246N18135 1886 28 WP MM NOT_NAMED 1886-09-03 09:00:00 NR 18.7439 132.527 main 1017 987 __________P___ -1 18.7439 132.527 7 8 284
1886246N18135 1886 28 WP MM NOT_NAMED 1886-09-03 12:00:00 NR 18.8477 132.125 main 987 965 __________P___ -1 18.8477 132.125 7 8 286
1886246N18135 1886 28 WP MM NOT_NAMED 1886-09-03 15:00:00 NR 18.9608 131.730 main 965 956 __________P___ -1 18.9608 131.730 7 8 287
1886246N18135 1886 28 WP MM NOT_NAMED 1886-09-03 16:00:00 NR 19.0000 131.600 main 956 937 __________O___ -1 19.0000 131.600 7 8 288
1886246N18135 1886 28 WP MM NOT_NAMED 1886-09-03 18:00:00 NR 19.0856 131.321 main 937 909 __________P___ -1 19.0856 131.321 7 8 289
1886246N18135 1886 28 WP MM NOT_NAMED 1886-09-03 21:00:00 NR 19.2204 130.908 main 909 868 __________P___ -1 19.2204 130.908 7 8 289
1886246N18135 1886 28 WP MM NOT_NAMED 1886-09-04 00:00:00 NR 19.3518 130.524 main 869 838 __________P___ -1 19.3518 130.524 7 7 290
1886246N18135 1886 28 WP MM NOT_NAMED 1886-09-04 03:00:00 NR 19.4672 130.194 main 839 829 __________P___ -1 19.4672 130.194 7 6 290
1886246N18135 1886 28 WP MM NOT_NAMED 1886-09-04 04:00:00 NR 19.5000 130.100 main 829 810 __________O___ -1 19.5000 130.100 7 5 290
1886246N18135 1886 28 WP MM NOT_NAMED 1886-09-04 06:00:00 NR 19.5501 129.948 main 810 799 __________P___ -1 19.5501 129.948 7 4 289
1886246N18135 1886 28 WP MM NOT_NAMED 1886-09-04 09:00:00 NR 19.6067 129.778 main 799 789 __________P___ -1 19.6067 129.778 7 3 290
1886246N18135 1886 28 WP MM NOT_NAMED 1886-09-04 12:00:00 NR 19.6492 129.651 main 789 770 __________P___ -1 19.6492 129.651 7 2 290
1886246N18135 1886 28 WP MM NOT_NAMED 1886-09-04 15:00:00 NR 19.6869 129.539 main 770 770 __________P___ -1 19.6869 129.539 7 2 289
1886246N18135 1886 28 WP MM NOT_NAMED 1886-09-04 16:00:00 NR 19.7000 129.500 main 770 760 __________O___ -1 19.7000 129.500 7 3 288
1886246N18135 1886 28 WP MM NOT_NAMED 1886-09-04 18:00:00 NR 19.7307 129.395 main 760 741 __________P___ -1 19.7307 129.395 7 3 287
1886246N18135 1886 28 WP MM NOT_NAMED 1886-09-04 21:00:00 NR 19.7767 129.237 main 741 731 __________P___ -1 19.7767 129.237 7 3 288
1886246N18135 1886 28 WP MM NOT_NAMED 1886-09-05 00:00:00 NR 19.8254 129.084 main 731 713 __________P___ -1 19.8254 129.084 7 3 290
1886246N18135 1886 28 WP MM NOT_NAMED 1886-09-05 03:00:00 NR 19.8800 128.943 main 713 713 __________P___ -1 19.8800 128.943 7 3 293
1886246N18135 1886 28 WP MM NOT_NAMED 1886-09-05 04:00:00 NR 19.9000 128.900 main 713 703 __________O___ -1 19.9000 128.900 7 3 299
1886246N18135 1886 28 WP MM NOT_NAMED 1886-09-05 06:00:00 NR 19.9442 128.822 main 703 695 __________P___ -1 19.9442 128.822 7 2 304
1886246N18135 1886 28 WP MM NOT_NAMED 1886-09-05 09:00:00 NR 20.0170 128.717 main 695 688 __________P___ -1 20.0170 128.717 7 2 309
1886246N18135 1886 28 WP MM NOT_NAMED 1886-09-05 12:00:00 NR 20.0945 128.622 main 688 681 __________P___ -1 20.0945 128.622 7 2 311
1886246N18135 1886 28 WP MM NOT_NAMED 1886-09-05 15:00:00 NR 20.1738 128.531 main 681 681 __________P___ -1 20.1738 128.531 7 2 314
1886246N18135 1886 28 WP MM NOT_NAMED 1886-09-05 16:00:00 NR 20.2000 128.500 main 681 671 __________O___ -1 20.2000 128.500 7 2 309
1886246N18135 1886 28 WP MM NOT_NAMED 1886-09-05 18:00:00 NR 20.2526 128.431 main 674 664 __________P___ -1 20.2526 128.431 7 3 309
1886246N18135 1886 28 WP MM NOT_NAMED 1886-09-05 21:00:00 NR 20.3316 128.327 main 664 657 __________P___ -1 20.3316 128.327 7 2 309
1886246N18135 1886 28 WP MM NOT_NAMED 1886-09-06 00:00:00 NR 20.4079 128.225 main 657 651 __________P___ -1 20.4079 128.225 7 2 308
1886246N18135 1886 28 WP MM NOT_NAMED 1886-09-06 03:00:00 NR 20.4784 128.130 main 651 651 __________P___ -1 20.4784 128.130 7 2 308
1886246N18135 1886 28 WP MM NOT_NAMED 1886-09-06 04:00:00 NR 20.5000 128.100 main 651 642 __________O___ -1 20.5000 128.100 7 2 309
1886246N18135 1886 28 WP MM NOT_NAMED 1886-09-06 06:00:00 NR 20.5390 128.042 main 642 642 __________P___ -1 20.5390 128.042 7 2 305
1886246N18135 1886 28 WP MM NOT_NAMED 1886-09-06 09:00:00 NR 20.5913 127.960 main 646 636 __________P___ -1 20.5913 127.960 7 2 305
1886246N18135 1886 28 WP MM NOT_NAMED 1886-09-06 12:00:00 NR 20.6388 127.887 main 636 631 __________P___ -1 20.6388 127.887 7 2 305
1886246N18135 1886 28 WP MM NOT_NAMED 1886-09-06 15:00:00 NR 20.6846 127.820 main 631 631 __________P___ -1 20.6846 127.820 7 2 309
1886246N18135 1886 28 WP MM NOT_NAMED 1886-09-06 16:00:00 NR 20.7000 127.800 main 631 631 __________O___ -1 20.7000 127.800 7 2 310
1886246N18135 1886 28 WP MM NOT_NAMED 1886-09-06 18:00:00 NR 20.7359 127.761 main 631 621 __________P___ -1 20.7359 127.761 7 1 316
1886246N18135 1886 28 WP MM NOT_NAMED 1886-09-06 21:00:00 NR 20.7899 127.709 main 626 626 __________P___ -1 20.7899 127.709 7 1 318
1886246N18135 1886 28 WP MM NOT_NAMED 1886-09-07 00:00:00 NR 20.8412 127.661 main 626 621 __________P___ -1 20.8412 127.661 7 1 318
1886246N18135 1886 28 WP MM NOT_NAMED 1886-09-07 03:00:00 NR 20.8867 127.615 main 621 621 __________P___ -1 20.8867 127.615 7 1 318
1886246N18135 1886 28 WP MM NOT_NAMED 1886-09-07 04:00:00 NR 20.9000 127.600 main 621 621 __________O___ -1 20.9000 127.600 7 1 303
1886246N18135 1886 28 WP MM NOT_NAMED 1886-09-07 06:00:00 NR 20.9171 127.567 main 621 612 __________P___ -1 20.9171 127.567 7 1 294
1886246N18135 1886 28 WP MM NOT_NAMED 1886-09-07 09:00:00 NR 20.9364 127.517 main 612 612 __________P___ -1 20.9364 127.517 7 1 292
1886246N18135 1886 28 WP MM NOT_NAMED 1886-09-07 12:00:00 NR 20.9563 127.467 main 617 607 __________P___ -1 20.9563 127.467 7 1 296
1886246N18135 1886 28 WP MM NOT_NAMED 1886-09-07 15:00:00 NR 20.9862 127.417 main 607 607 __________P___ -1 20.9862 127.417 7 1 310
1886246N18135 1886 28 WP MM NOT_NAMED 1886-09-07 16:00:00 NR 21.0000 127.400 main 607 607 __________O___ -1 21.0000 127.400 7 1 327
1886246N18135 1886 28 WP MM NOT_NAMED 1886-09-07 18:00:00 NR 21.0333 127.369 main 607 604 __________P___ -1 21.0333 127.369 7 1 324
1886246N18135 1886 28 WP MM NOT_NAMED 1886-09-07 21:00:00 NR 21.0958 127.323 main 604 604 __________P___ -1 21.0958 127.323 7 2 327
1886246N18135 1886 28 WP MM NOT_NAMED 1886-09-08 00:00:00 NR 21.1733 127.275 main 609 600 __________P___ -1 21.1733 127.275 7 2 331
1886246N18135 1886 28 WP MM NOT_NAMED 1886-09-08 03:00:00 NR 21.2658 127.220 main 606 606 __________P___ -1 21.2658 127.220 7 2 333
1886246N18135 1886 28 WP MM NOT_NAMED 1886-09-08 04:00:00 NR 21.3000 127.200 main 606 606 __________O___ -1 21.3000 127.200 7 2 326
1886246N18135 1886 28 WP MM NOT_NAMED 1886-09-08 06:00:00 NR 21.3641 127.150 main 612 603 __________P___ -1 21.3641 127.150 7 3 326
1886246N18135 1886 28 WP MM NOT_NAMED 1886-09-08 09:00:00 NR 21.4726 127.070 main 609 599 __________P___ -1 21.4726 127.070 7 3 328
1886246N18135 1886 28 WP MM NOT_NAMED 1886-09-08 12:00:00 NR 21.5988 126.990 main 599 586 __________P___ -1 21.5988 126.990 7 3 333
1886246N18135 1886 28 WP MM NOT_NAMED 1886-09-08 15:00:00 NR 21.7458 126.920 main 586 583 __________P___ -1 21.7458 126.920 7 3 338
1886246N18135 1886 28 WP MM NOT_NAMED 1886-09-08 16:00:00 NR 21.8000 126.900 main 583 580 __________O___ -1 21.8000 126.900 7 4 341
1886246N18135 1886 28 WP MM NOT_NAMED 1886-09-08 18:00:00 NR 21.9136 126.861 main 580 565 __________P___ -1 21.9136 126.861 7 4 345
1886246N18135 1886 28 WP MM NOT_NAMED 1886-09-08 21:00:00 NR 22.1028 126.816 main 565 556 __________P___ -1 22.1028 126.816 7 4 350
1886246N18135 1886 28 WP MM NOT_NAMED 1886-09-09 00:00:00 NR 22.3091 126.791 main 556 547 __________P___ -1 22.3091 126.791 7 4 356
1886246N18135 1886 28 WP MM NOT_NAMED 1886-09-09 03:00:00 NR 22.5263 126.793 main 547 542 __________P___ -1 22.5263 126.793 7 4 0
1886246N18135 1886 28 WP MM NOT_NAMED 1886-09-09 04:00:00 NR 22.6000 126.800 main 542 538 __________O___ -1 22.6000 126.800 7 4 10
1886246N18135 1886 28 WP MM NOT_NAMED 1886-09-09 06:00:00 NR 22.7469 126.827 main 538 533 __________P___ -1 22.7469 126.827 7 5 13
1886246N18135 1886 28 WP MM NOT_NAMED 1886-09-09 09:00:00 NR 22.9737 126.893 main 535 531 __________P___ -1 22.9737 126.893 7 5 17
1886246N18135 1886 28 WP MM NOT_NAMED 1886-09-09 12:00:00 NR 23.2025 126.978 main 538 532 __________P___ -1 23.2025 126.978 7 5 20
1886246N18135 1886 28 WP MM NOT_NAMED 1886-09-09 15:00:00 NR 23.4271 127.070 main 542 539 __________P___ -1 23.4271 127.070 7 5 21
1886246N18135 1886 28 WP MM NOT_NAMED 1886-09-09 16:00:00 NR 23.5000 127.100 main 539 537 __________O___ -1 23.5000 127.100 7 4 19
1886246N18135 1886 28 WP MM NOT_NAMED 1886-09-09 18:00:00 NR 23.5943 127.130 main 537 534 __________P___ -1 23.5943 127.130 7 3 16
1886246N18135 1886 28 WP MM NOT_NAMED 1886-09-09 21:00:00 NR 23.7286 127.174 main 545 540 __________P___ -1 23.7286 127.174 7 3 17
1886246N18135 1886 28 WP MM NOT_NAMED 1886-09-10 00:00:00 NR 23.9042 127.239 main 540 540 __________P___ -1 23.9042 127.239 7 5 20
1886246N18135 1886 28 WP MM NOT_NAMED 1886-09-10 03:00:00 NR 24.1775 127.349 main 542 550 __________P___ -1 24.1775 127.349 7 6 20
1886246N18135 1886 28 WP MM NOT_NAMED 1886-09-10 04:00:00 NR 24.3000 127.400 main 550 549 __________O___ -1 24.3000 127.400 7 9 20
1886246N18135 1886 28 WP MM NOT_NAMED 1886-09-10 06:00:00 NR 24.6118 127.525 main 556 555 __________P___ -1 24.6118 127.525 7 11 20
1886246N18135 1886 28 WP MM NOT_NAMED 1886-09-10 09:00:00 NR 25.1864 127.762 main 583 583 __________P___ -1 25.1864 127.762 7 13 21
1886246N18135 1886 28 WP MM NOT_NAMED 1886-09-10 12:00:00 NR 25.8506 128.051 main 620 539 __________P___ -1 25.8506 128.051 7 15 22
1886246N18135 1886 28 WP MM NOT_NAMED 1886-09-10 15:00:00 NR 26.5607 128.382 main 539 515 __________P___ -1 26.5607 128.382 7 16 23
1886246N18135 1886 28 WP MM NOT_NAMED 1886-09-10 16:00:00 NR 26.8000 128.500 main 515 456 __________O___ -1 26.8000 128.500 7 16 24
1886246N18135 1886 28 WP MM NOT_NAMED 1886-09-10 18:00:00 NR 27.2754 128.745 main 456 368 __________P___ -1 27.2754 128.745 7 16 25
1886246N18135 1886 28 WP MM NOT_NAMED 1886-09-10 21:00:00 NR 27.9802 129.132 main 368 281 __________P___ -1 27.9802 129.132 7 16 27
1886246N18135 1886 28 WP MM NOT_NAMED 1886-09-11 00:00:00 NR 28.6775 129.538 main 281 190 __________P___ -1 28.6775 129.538 7 16 28
1886246N18135 1886 28 WP MM NOT_NAMED 1886-09-11 03:00:00 NR 29.3699 129.958 main 190 166 __________P___ -1 29.3699 129.958 7 16 28
1886246N18135 1886 28 WP MM NOT_NAMED 1886-09-11 04:00:00 NR 29.6000 130.100 main 166 __________O___ -1 29.6000 130.100 7 16 29

Digital Typhoon Data and Search

About IBTrACS Database

This database is a web-friendly format of International Best Track Archive for Climate Stewardship (IBTrACS), a global best track data archive curated by NOAA dating back to 1842.

Updated: 2021-10-25